createdAt,value
2023-03-18T00:01:11.057Z,100980.16
2023-03-18T00:04:13.787Z,100986.22
2023-03-18T00:07:16.340Z,100977.69
2023-03-18T00:10:20.478Z,100986.34
2023-03-18T00:13:22.522Z,100975.53
2023-03-18T00:16:27.196Z,100967.66
2023-03-18T00:19:29.687Z,100966.97
2023-03-18T00:22:37.378Z,100965.00
2023-03-18T00:25:39.660Z,100963.81
2023-03-18T00:28:42.317Z,100962.06
2023-03-18T00:31:44.790Z,100962.31
2023-03-18T00:34:47.341Z,100963.94
2023-03-18T00:37:49.687Z,100963.94
2023-03-18T00:41:11.097Z,100956.94
2023-03-18T00:44:14.878Z,100954.97
2023-03-18T00:47:17.374Z,100952.97
2023-03-18T00:50:20.078Z,100957.38
2023-03-18T00:53:25.006Z,100954.63
2023-03-18T00:56:31.256Z,100950.28
2023-03-18T00:59:34.254Z,100958.75
2023-03-18T01:02:36.605Z,100955.00
2023-03-18T01:05:39.872Z,100947.88
2023-03-18T01:08:42.407Z,100944.34
2023-03-18T01:11:44.880Z,100941.09
2023-03-18T01:14:48.153Z,100936.34
2023-03-18T01:17:52.383Z,100931.50
2023-03-18T01:20:54.574Z,100930.03
2023-03-18T01:23:57.360Z,100919.66
2023-03-18T01:27:00.745Z,100924.97
2023-03-18T01:30:05.934Z,100921.72
2023-03-18T01:33:09.108Z,100912.53
2023-03-18T01:36:11.993Z,100922.84
2023-03-18T01:39:15.531Z,100912.81
2023-03-18T01:42:18.299Z,100909.81
2023-03-18T01:45:25.688Z,100910.78
2023-03-18T01:48:37.234Z,100910.25
2023-03-18T01:51:43.504Z,100906.03
2023-03-18T01:54:57.657Z,100895.38
2023-03-18T01:58:03.554Z,100900.47
2023-03-18T02:01:28.758Z,100900.25
2023-03-18T02:04:41.135Z,100908.44
2023-03-18T02:07:45.221Z,100905.94
2023-03-18T02:10:48.978Z,100904.16
2023-03-18T02:13:52.722Z,100908.06
2023-03-18T02:17:19.354Z,100901.91
2023-03-18T02:20:24.495Z,100896.47
2023-03-18T02:23:37.124Z,100888.56
2023-03-18T02:26:56.974Z,100891.28
2023-03-18T02:30:10.323Z,100895.81
2023-03-18T02:33:15.936Z,100896.41
2023-03-18T02:36:23.940Z,100895.72
2023-03-18T02:39:27.177Z,100897.69
2023-03-18T02:42:31.482Z,100895.25
2023-03-18T02:45:43.005Z,100903.62
2023-03-18T02:48:46.930Z,100894.87
2023-03-18T02:51:50.393Z,100898.81
2023-03-18T02:54:53.377Z,100901.87
2023-03-18T02:57:56.067Z,100910.97
2023-03-18T03:00:58.978Z,100911.47
2023-03-18T03:04:03.019Z,100908.97
2023-03-18T03:07:05.866Z,100908.56
2023-03-18T03:10:09.588Z,100904.19
2023-03-18T03:13:13.562Z,100908.41
2023-03-18T03:16:18.352Z,100907.50
2023-03-18T03:19:20.890Z,100906.94
2023-03-18T03:22:23.085Z,100913.62
2023-03-18T03:25:27.444Z,100916.75
2023-03-18T03:28:30.728Z,100914.66
2023-03-18T03:31:34.169Z,100916.25
2023-03-18T03:34:36.433Z,100921.00
2023-03-18T03:37:38.898Z,100919.44
2023-03-18T03:40:41.127Z,100918.87
2023-03-18T03:43:43.689Z,100923.69
2023-03-18T03:46:46.180Z,100930.75
2023-03-18T03:49:48.620Z,100931.66
2023-03-18T03:52:51.250Z,100933.75
2023-03-18T03:55:55.034Z,100931.38
2023-03-18T03:58:58.167Z,100934.31
2023-03-18T04:02:02.008Z,100936.56
2023-03-18T04:05:05.078Z,100927.53
2023-03-18T04:08:08.185Z,100930.00
2023-03-18T04:11:11.074Z,100927.06
2023-03-18T04:14:13.472Z,100935.44
2023-03-18T04:17:16.861Z,100930.25
2023-03-18T04:20:19.600Z,100936.56
2023-03-18T04:23:22.270Z,100937.91
2023-03-18T04:26:24.591Z,100937.28
2023-03-18T04:29:27.740Z,100936.53
2023-03-18T04:32:30.126Z,100936.19
2023-03-18T04:35:32.844Z,100942.75
2023-03-18T04:38:35.572Z,100937.22
2023-03-18T04:41:39.760Z,100945.84
2023-03-18T04:44:42.425Z,100947.25
2023-03-18T04:47:45.508Z,100945.37
2023-03-18T04:50:48.517Z,100950.03
2023-03-18T04:53:52.423Z,100954.50
2023-03-18T04:56:54.802Z,100962.19
2023-03-18T04:59:58.184Z,100963.72
2023-03-18T05:03:03.688Z,100958.41
2023-03-18T05:06:08.222Z,100962.44
2023-03-18T05:09:13.156Z,100964.09
2023-03-18T05:12:16.850Z,100960.34
2023-03-18T05:15:19.445Z,100971.63
2023-03-18T05:18:22.536Z,100966.38
2023-03-18T05:21:25.973Z,100969.22
2023-03-18T05:24:28.854Z,100978.38
2023-03-18T05:27:31.450Z,100963.81
2023-03-18T05:30:34.523Z,100977.13
2023-03-18T05:33:37.083Z,100978.22
2023-03-18T05:36:40.218Z,100977.84
2023-03-18T05:39:45.004Z,100975.25
2023-03-18T05:42:55.828Z,100994.94
2023-03-18T05:46:05.070Z,100978.03
2023-03-18T05:49:08.924Z,100985.47
2023-03-18T05:52:11.670Z,100987.22
2023-03-18T05:55:15.058Z,100989.25
2023-03-18T05:58:18.814Z,100984.28
2023-03-18T06:01:22.240Z,100991.44
2023-03-18T06:04:27.099Z,100986.41
2023-03-18T06:07:29.369Z,100977.56
2023-03-18T06:10:32.164Z,100988.41
2023-03-18T06:13:34.424Z,100988.63
2023-03-18T06:16:37.522Z,100993.03
2023-03-18T06:19:39.691Z,100993.03
2023-03-18T06:22:48.964Z,100992.13
2023-03-18T06:25:51.247Z,101005.31
2023-03-18T06:28:54.430Z,101000.25
2023-03-18T06:31:56.687Z,101001.12
2023-03-18T06:35:00.402Z,101003.31
2023-03-18T06:38:03.179Z,101005.12
2023-03-18T06:41:06.592Z,101008.00
2023-03-18T06:44:09.685Z,101011.75
2023-03-18T06:47:12.429Z,101018.59
2023-03-18T06:50:16.290Z,101022.59
2023-03-18T06:53:20.053Z,101025.28
2023-03-18T06:56:23.638Z,101025.00
2023-03-18T06:59:27.352Z,101026.84
2023-03-18T07:02:29.967Z,101024.81
2023-03-18T07:05:33.205Z,101031.62
2023-03-18T07:08:36.353Z,101031.62
2023-03-18T07:11:38.850Z,101025.94
2023-03-18T07:14:42.080Z,101023.72
2023-03-18T07:17:44.824Z,101029.53
2023-03-18T07:20:47.403Z,101024.22
2023-03-18T07:23:49.938Z,101025.69
2023-03-18T07:26:53.718Z,101028.62
2023-03-18T07:29:57.065Z,101028.53
2023-03-18T07:32:59.194Z,101029.97
2023-03-18T07:36:02.038Z,101029.38
2023-03-18T07:39:06.446Z,101039.25
2023-03-18T07:42:09.683Z,101045.94
2023-03-18T07:45:12.055Z,101040.34
2023-03-18T07:48:15.251Z,101045.84
2023-03-18T07:51:17.432Z,101041.78
2023-03-18T07:54:20.068Z,101054.53
2023-03-18T07:57:22.384Z,101050.59
2023-03-18T08:00:25.700Z,101049.50
2023-03-18T08:03:28.660Z,101039.84
2023-03-18T08:06:30.976Z,101050.44
2023-03-18T08:09:34.692Z,101045.47
2023-03-18T08:12:51.553Z,101048.16
2023-03-18T08:15:56.267Z,101045.88
2023-03-18T08:18:58.896Z,101043.59
2023-03-18T08:22:02.159Z,101037.06
2023-03-18T08:25:04.569Z,101040.63
2023-03-18T08:28:07.678Z,101040.50
2023-03-18T08:31:10.034Z,101043.91
2023-03-18T08:34:12.577Z,101035.78
2023-03-18T08:37:14.770Z,101029.22
2023-03-18T08:40:17.921Z,101034.16
2023-03-18T08:43:22.726Z,101029.31
2023-03-18T08:46:27.539Z,101020.88
2023-03-18T08:49:30.045Z,101028.53
2023-03-18T08:52:32.635Z,101024.78
2023-03-18T08:55:39.795Z,101016.84
2023-03-18T08:58:44.677Z,101018.03
2023-03-18T09:01:48.068Z,101024.94
2023-03-18T09:04:51.160Z,101026.13
2023-03-18T09:07:53.264Z,101027.31
2023-03-18T09:10:56.497Z,101025.88
2023-03-18T09:13:58.679Z,101018.44
2023-03-18T09:17:01.267Z,101010.09
2023-03-18T09:20:04.728Z,101015.34
2023-03-18T09:23:08.810Z,101011.03
2023-03-18T09:26:12.524Z,101007.47
2023-03-18T09:29:16.459Z,101004.06
2023-03-18T09:32:18.524Z,101009.81
2023-03-18T09:35:20.860Z,101005.88
2023-03-18T09:38:25.738Z,101006.63
2023-03-18T09:41:42.141Z,101000.84
2023-03-18T09:44:45.329Z,100993.81
2023-03-18T09:48:03.413Z,101002.28
2023-03-18T09:51:14.684Z,100993.03
2023-03-18T09:54:36.734Z,100991.38
2023-03-18T09:57:42.664Z,100987.75
2023-03-18T10:00:45.842Z,100985.72
2023-03-18T10:04:00.768Z,100985.19
2023-03-18T10:07:12.049Z,100980.00
2023-03-18T10:10:35.077Z,100976.28
2023-03-18T10:13:50.532Z,100976.31
2023-03-18T10:17:35.544Z,100970.75
2023-03-18T10:20:48.451Z,100972.09
2023-03-18T10:24:02.082Z,100974.94
2023-03-18T10:27:10.612Z,100962.81
2023-03-18T10:30:43.017Z,100960.09
2023-03-18T10:33:54.992Z,100960.97
2023-03-18T10:37:27.320Z,100959.84
2023-03-18T10:40:35.464Z,100963.38
2023-03-18T10:43:38.102Z,100962.25
2023-03-18T10:46:42.485Z,100970.25
2023-03-18T10:50:10.749Z,100962.69
2023-03-18T10:53:35.261Z,100966.31
2023-03-18T10:56:37.924Z,100957.97
2023-03-18T10:59:40.226Z,100951.66
2023-03-18T11:02:43.655Z,100940.12
2023-03-18T11:05:46.421Z,100935.28
2023-03-18T11:08:49.517Z,100928.09
2023-03-18T11:11:57.351Z,100913.00
2023-03-18T11:15:00.668Z,100919.19
2023-03-18T11:18:03.747Z,100926.88
2023-03-18T11:21:12.876Z,100915.47
2023-03-18T11:24:44.644Z,100911.56
2023-03-18T11:27:50.390Z,100903.81
2023-03-18T11:30:57.100Z,100900.91
2023-03-18T11:34:00.590Z,100889.88
2023-03-18T11:37:05.761Z,100893.97
2023-03-18T11:40:14.253Z,100889.38
2023-03-18T11:43:21.793Z,100890.41
2023-03-18T11:46:27.026Z,100872.06
2023-03-18T11:49:31.289Z,100881.78
2023-03-18T11:52:54.655Z,100879.66
2023-03-18T11:56:35.201Z,100883.00
2023-03-18T11:59:40.466Z,100877.91
2023-03-18T12:03:11.806Z,100867.47
2023-03-18T12:06:22.277Z,100868.81
2023-03-18T12:09:31.267Z,100871.94
2023-03-18T12:12:55.887Z,100863.25
2023-03-18T12:16:17.154Z,100862.81
2023-03-18T12:19:32.075Z,100844.00
2023-03-18T12:23:01.731Z,100846.81
2023-03-18T12:26:09.555Z,100853.75
2023-03-18T12:29:23.356Z,100849.63
2023-03-18T12:32:48.759Z,100850.06
2023-03-18T12:35:52.517Z,100833.16
2023-03-18T12:39:05.761Z,100836.69
2023-03-18T12:42:27.044Z,100838.97
2023-03-18T12:45:47.654Z,100834.72
2023-03-18T12:49:01.785Z,100849.41
2023-03-18T12:52:23.083Z,100838.75
2023-03-18T12:55:45.619Z,100844.09
2023-03-18T12:58:52.497Z,100845.88
2023-03-18T13:02:13.236Z,100843.66
2023-03-18T13:05:29.884Z,100835.88
2023-03-18T13:08:41.248Z,100837.03
2023-03-18T13:12:02.667Z,100833.94
2023-03-18T13:15:29.272Z,100830.94
2023-03-18T13:18:39.625Z,100821.84
2023-03-18T13:21:51.518Z,100826.03
2023-03-18T13:25:21.648Z,100832.22
2023-03-18T13:28:43.842Z,100834.50
2023-03-18T13:31:52.958Z,100829.47
2023-03-18T13:35:06.946Z,100834.97
2023-03-18T13:38:23.218Z,100830.00
2023-03-18T13:41:50.481Z,100830.09
2023-03-18T13:44:55.890Z,100816.06
2023-03-18T13:48:00.511Z,100815.38
2023-03-18T13:51:39.595Z,100806.75
2023-03-18T13:54:42.258Z,100814.91
2023-03-18T13:57:55.650Z,100814.09
2023-03-18T14:01:00.632Z,100809.75
2023-03-18T14:04:33.195Z,100800.97
2023-03-18T14:07:47.829Z,100800.38
2023-03-18T14:11:10.381Z,100799.25
2023-03-18T14:15:02.255Z,100793.81
2023-03-18T14:18:19.523Z,100786.53
2023-03-18T14:21:54.824Z,100785.06
2023-03-18T14:25:35.130Z,100788.28
2023-03-18T14:29:06.393Z,100772.50
2023-03-18T14:32:33.735Z,100765.09
2023-03-18T14:35:59.835Z,100769.03
2023-03-18T14:39:07.054Z,100766.41
2023-03-18T14:42:31.641Z,100767.31
2023-03-18T14:45:38.854Z,100761.59
2023-03-18T14:48:41.099Z,100767.69
2023-03-18T14:51:43.865Z,100760.91
2023-03-18T14:54:49.014Z,100760.25
2023-03-18T14:57:52.648Z,100764.62
2023-03-18T15:01:09.457Z,100761.50
2023-03-18T15:04:19.069Z,100764.28
2023-03-18T15:07:29.937Z,100764.16
2023-03-18T15:10:32.864Z,100755.53
2023-03-18T15:13:35.981Z,100754.53
2023-03-18T15:16:39.014Z,100763.31
2023-03-18T15:19:41.870Z,100757.75
2023-03-18T15:22:45.265Z,100750.97
2023-03-18T15:25:49.316Z,100751.91
2023-03-18T15:28:58.505Z,100747.44
2023-03-18T15:32:16.082Z,100751.69
2023-03-18T15:35:25.431Z,100749.88
2023-03-18T15:38:31.016Z,100754.25
2023-03-18T15:41:33.790Z,100751.19
2023-03-18T15:44:38.214Z,100756.06
2023-03-18T15:47:43.590Z,100759.59
2023-03-18T15:50:59.132Z,100759.56
2023-03-18T15:54:14.833Z,100755.94
2023-03-18T15:57:43.426Z,100767.66
2023-03-18T16:00:46.032Z,100764.50
2023-03-18T16:03:49.687Z,100772.37
2023-03-18T16:06:54.860Z,100775.25
2023-03-18T16:09:57.367Z,100776.84
2023-03-18T16:13:01.930Z,100782.97
2023-03-18T16:16:05.066Z,100779.94
2023-03-18T16:19:25.071Z,100784.12
2023-03-18T16:22:27.673Z,100784.47
2023-03-18T16:25:31.454Z,100785.38
2023-03-18T16:28:34.151Z,100786.13
2023-03-18T16:31:36.631Z,100787.31
2023-03-18T16:34:39.676Z,100786.34
2023-03-18T16:37:44.149Z,100782.75
2023-03-18T16:40:46.968Z,100788.84
2023-03-18T16:43:50.071Z,100786.00
2023-03-18T16:46:55.469Z,100786.19
2023-03-18T16:49:57.933Z,100787.72
2023-03-18T16:53:00.486Z,100783.59
2023-03-18T16:56:16.983Z,100793.44
2023-03-18T16:59:19.777Z,100789.03
2023-03-18T17:02:35.198Z,100788.38
2023-03-18T17:05:37.746Z,100796.25
2023-03-18T17:08:40.154Z,100782.37
2023-03-18T17:11:44.087Z,100799.28
2023-03-18T17:14:53.645Z,100796.63
2023-03-18T17:17:58.577Z,100803.41
2023-03-18T17:21:03.409Z,100803.41
2023-03-18T17:24:06.574Z,100801.59
2023-03-18T17:27:11.793Z,100797.03
2023-03-18T17:30:34.147Z,100802.13
2023-03-18T17:33:37.584Z,100804.34
2023-03-18T17:36:40.074Z,100806.56
2023-03-18T17:39:42.228Z,100808.06
2023-03-18T17:42:46.573Z,100808.47
2023-03-18T17:45:48.953Z,100806.87
2023-03-18T17:48:51.755Z,100809.75
2023-03-18T17:51:55.670Z,100809.56
2023-03-18T17:54:58.210Z,100810.59
2023-03-18T17:58:00.410Z,100810.81
2023-03-18T18:01:10.692Z,100807.41
2023-03-18T18:04:22.062Z,100820.88
2023-03-18T18:07:24.324Z,100814.31
2023-03-18T18:10:27.045Z,100820.66
2023-03-18T18:13:29.459Z,100812.72
2023-03-18T18:16:32.536Z,100815.38
2023-03-18T18:19:34.805Z,100823.59
2023-03-18T18:22:37.696Z,100822.75
2023-03-18T18:25:39.969Z,100821.78
2023-03-18T18:28:48.127Z,100822.84
2023-03-18T18:31:50.976Z,100822.12
2023-03-18T18:34:53.502Z,100825.72
2023-03-18T18:37:55.668Z,100826.34
2023-03-18T18:40:58.982Z,100831.00
2023-03-18T18:44:01.163Z,100838.78
2023-03-18T18:47:03.774Z,100831.00
2023-03-18T18:50:06.597Z,100831.69
2023-03-18T18:53:18.266Z,100834.81
2023-03-18T18:56:34.721Z,100832.44
2023-03-18T18:59:37.484Z,100835.94
2023-03-18T19:02:39.806Z,100836.87
2023-03-18T19:05:44.181Z,100832.91
2023-03-18T19:08:47.063Z,100829.91
2023-03-18T19:11:50.845Z,100833.09
2023-03-18T19:14:53.472Z,100832.25
2023-03-18T19:17:56.373Z,100833.75
2023-03-18T19:20:58.695Z,100838.97
2023-03-18T19:24:01.199Z,100838.13
2023-03-18T19:27:06.297Z,100838.88
2023-03-18T19:30:22.751Z,100840.84
2023-03-18T19:33:25.090Z,100840.31
2023-03-18T19:36:37.501Z,100839.81
2023-03-18T19:39:39.704Z,100848.13
2023-03-18T19:42:42.169Z,100846.81
2023-03-18T19:45:46.887Z,100854.06
2023-03-18T19:48:50.156Z,100853.50
2023-03-18T19:51:53.063Z,100846.59
2023-03-18T19:54:56.102Z,100851.28
2023-03-18T19:57:58.272Z,100856.75
2023-03-18T20:01:01.673Z,100857.75
2023-03-18T20:04:07.272Z,100862.72
2023-03-18T20:07:09.640Z,100859.63
2023-03-18T20:10:13.793Z,100853.63
2023-03-18T20:13:16.906Z,100863.25
2023-03-18T20:16:19.802Z,100871.56
2023-03-18T20:19:22.132Z,100872.19
2023-03-18T20:22:31.671Z,100868.53
2023-03-18T20:25:37.286Z,100868.84
2023-03-18T20:28:45.504Z,100875.66
2023-03-18T20:31:47.915Z,100870.03
2023-03-18T20:34:51.149Z,100871.81
2023-03-18T20:37:54.229Z,100868.97
2023-03-18T20:40:57.013Z,100877.69
2023-03-18T20:43:59.202Z,100871.03
2023-03-18T20:47:01.754Z,100868.38
2023-03-18T20:50:04.473Z,100871.34
2023-03-18T20:53:15.922Z,100866.41
2023-03-18T20:56:22.555Z,100866.25
2023-03-18T20:59:25.178Z,100871.84
2023-03-18T21:02:36.284Z,100869.28
2023-03-18T21:05:38.826Z,100868.91
2023-03-18T21:08:41.972Z,100883.41
2023-03-18T21:11:44.662Z,100874.75
2023-03-18T21:14:47.552Z,100874.16
2023-03-18T21:17:50.417Z,100880.69
2023-03-18T21:20:53.976Z,100875.72
2023-03-18T21:23:56.704Z,100877.28
2023-03-18T21:27:04.691Z,100870.53
2023-03-18T21:30:09.863Z,100878.25
2023-03-18T21:33:33.455Z,100887.44
2023-03-18T21:36:36.469Z,100885.53
2023-03-18T21:39:38.657Z,100873.84
2023-03-18T21:42:42.802Z,100870.28
2023-03-18T21:45:45.228Z,100869.53
2023-03-18T21:48:48.055Z,100867.19
2023-03-18T21:51:50.417Z,100876.97
2023-03-18T21:54:53.216Z,100878.25
2023-03-18T21:57:55.571Z,100875.97
2023-03-18T22:00:59.487Z,100879.06
2023-03-18T22:04:02.132Z,100875.31
2023-03-18T22:07:04.461Z,100877.66
2023-03-18T22:10:07.591Z,100877.37
2023-03-18T22:13:20.514Z,100878.91
2023-03-18T22:16:23.120Z,100885.47
2023-03-18T22:19:25.647Z,100882.47
2023-03-18T22:22:36.957Z,100882.62
2023-03-18T22:25:39.946Z,100881.91
2023-03-18T22:28:42.984Z,100886.44
2023-03-18T22:31:45.253Z,100887.66
2023-03-18T22:34:47.944Z,100895.84
2023-03-18T22:37:50.978Z,100890.72
2023-03-18T22:40:56.227Z,100895.34
2023-03-18T22:44:00.048Z,100895.34
2023-03-18T22:47:02.987Z,100888.63
2023-03-18T22:50:05.734Z,100879.31
2023-03-18T22:53:13.686Z,100893.78
2023-03-18T22:56:17.277Z,100878.09
2023-03-18T22:59:19.832Z,100888.72
2023-03-18T23:02:27.750Z,100893.47
2023-03-18T23:05:30.655Z,100899.06
2023-03-18T23:08:32.988Z,100900.12
2023-03-18T23:11:35.801Z,100902.75
2023-03-18T23:14:39.594Z,100898.47
2023-03-18T23:17:42.488Z,100901.37
2023-03-18T23:20:47.142Z,100899.97
2023-03-18T23:23:51.323Z,100894.97
2023-03-18T23:26:53.463Z,100902.97
2023-03-18T23:29:56.126Z,100910.97
2023-03-18T23:32:58.386Z,100912.09
2023-03-18T23:36:01.309Z,100914.66
2023-03-18T23:39:03.658Z,100922.28
2023-03-18T23:42:06.643Z,100918.06
2023-03-18T23:45:09.247Z,100918.19
2023-03-18T23:48:11.786Z,100907.75
2023-03-18T23:51:14.017Z,100918.97
2023-03-18T23:54:16.643Z,100908.97
2023-03-18T23:57:18.845Z,100908.59
